Time;durP1;ratioP1;P1;durP2;ratioP2;P2;SDS_P1;SDS_P2;PMS_P1;PMS_P2;Temp;Humidity;BMP_temperature;BMP_pressure;BME280_temperature;BME280_humidity;BME280_pressure;Samples;Min_cycle;Max_cycle;Signal;HPM_P1;HPM_P2
2020/12/18 00:00:03;;;;;;;35.17;18.52;;;;;;;-0.95;87.91;102187.89;1771130;81;20929;-35
2020/12/18 00:02:31;;;;;;;28.07;16.52;;;;;;;-0.94;88.00;102190.06;1771158;80;20890;-36
2020/12/18 00:04:59;;;;;;;36.65;19.05;;;;;;;-0.93;88.00;102191.81;1771011;81;20997;-38
2020/12/18 00:07:27;;;;;;;40.92;18.45;;;;;;;-0.96;88.03;102188.69;1771080;81;21189;-37
2020/12/18 00:09:55;;;;;;;36.17;18.92;;;;;;;-0.97;88.16;102190.75;1770960;81;20973;-34
2020/12/18 00:12:23;;;;;;;32.65;17.67;;;;;;;-0.95;88.22;102189.17;1771109;81;21032;-38
2020/12/18 00:14:50;;;;;;;32.53;18.92;;;;;;;-0.94;88.25;102183.70;1770958;81;20921;-35
2020/12/18 00:17:19;;;;;;;34.13;18.17;;;;;;;-0.94;88.33;102186.25;1771167;81;21021;-36
2020/12/18 00:19:47;;;;;;;35.90;18.30;;;;;;;-0.94;88.43;102186.25;1771034;81;21366;-34
2020/12/18 00:22:14;;;;;;;33.60;18.30;;;;;;;-0.93;88.36;102190.54;1770973;81;20985;-36
2020/12/18 00:24:43;;;;;;;32.28;18.45;;;;;;;-0.93;88.31;102191.40;1771056;81;21075;-34
2020/12/18 00:27:11;;;;;;;32.25;18.27;;;;;;;-0.96;88.45;102187.42;1771096;81;20918;-33
2020/12/18 00:29:39;;;;;;;38.78;19.92;;;;;;;-0.96;88.54;102187.42;1771029;81;20882;-35
2020/12/18 00:32:06;;;;;;;35.88;19.65;;;;;;;-0.94;88.57;102196.01;1771031;81;21203;-35
2020/12/18 00:34:36;;;;;;;34.92;19.50;;;;;;;-0.90;88.60;102197.06;1770988;81;20989;-36
2020/12/18 00:37:03;;;;;;;32.90;18.10;;;;;;;-0.90;88.66;102201.73;1771030;81;21068;-34
2020/12/18 00:39:31;;;;;;;37.73;18.87;;;;;;;-0.91;88.62;102190.23;1771029;81;20921;-34
2020/12/18 00:41:59;;;;;;;34.43;18.98;;;;;;;-0.91;88.53;102197.45;1771025;81;21075;-34
2020/12/18 00:44:27;;;;;;;39.95;19.55;;;;;;;-0.91;88.53;102191.50;1771132;81;22501;-34
2020/12/18 00:46:55;;;;;;;34.80;18.98;;;;;;;-0.93;88.62;102191.81;1770881;81;20977;-34
2020/12/18 00:49:23;;;;;;;37.60;19.55;;;;;;;-0.94;88.68;102192.19;1766582;80;21016;-37
2020/12/18 00:51:52;;;;;;;35.23;19.20;;;;;;;-0.93;88.73;102188.86;1763106;81;20937;-35
2020/12/18 00:54:20;;;;;;;34.15;19.37;;;;;;;-0.92;88.73;102189.75;1763220;81;20902;-34
2020/12/18 00:56:49;;;;;;;34.65;18.60;;;;;;;-0.93;88.75;102187.59;1763065;81;21381;-36
2020/12/18 00:59:16;;;;;;;35.05;19.32;;;;;;;-0.96;88.79;102182.33;1763079;81;21060;-35
2020/12/18 01:01:46;;;;;;;45.28;19.23;;;;;;;-0.97;88.80;102180.99;1762546;80;21061;-35
2020/12/18 01:04:14;;;;;;;36.45;19.85;;;;;;;-0.99;88.81;102177.48;1762473;81;20970;-35
2020/12/18 01:06:42;;;;;;;40.03;20.72;;;;;;;-1.01;88.90;102178.66;1762607;81;20926;-35
2020/12/18 01:09:10;;;;;;;41.95;19.42;;;;;;;-1.00;89.01;102172.78;1762530;81;21401;-34
2020/12/18 01:11:39;;;;;;;33.02;19.10;;;;;;;-0.98;89.08;102176.28;1762441;81;20937;-35
2020/12/18 01:14:08;;;;;;;38.08;20.15;;;;;;;-0.97;89.06;102175.50;1762599;81;20906;-35
2020/12/18 01:16:38;;;;;;;35.43;19.30;;;;;;;-0.97;89.06;102170.83;1762420;81;20917;-35
2020/12/18 01:19:05;;;;;;;35.58;19.65;;;;;;;-0.99;89.05;102171.99;1762562;81;20962;-36
2020/12/18 01:21:36;;;;;;;37.03;19.95;;;;;;;-0.99;89.08;102166.05;1762660;81;21400;-36
2020/12/18 01:24:04;;;;;;;38.38;20.10;;;;;;;-0.99;89.04;102159.28;1762519;81;20977;-36
2020/12/18 01:26:34;;;;;;;36.60;19.77;;;;;;;-0.99;89.17;102158.01;1762563;81;21008;-34
2020/12/18 01:29:02;;;;;;;33.08;19.60;;;;;;;-0.99;89.20;102159.28;1762478;81;20926;-35
2020/12/18 01:31:32;;;;;;;36.35;19.57;;;;;;;-1.00;89.16;102154.98;1762517;81;20958;-35
2020/12/18 01:34:00;;;;;;;41.28;20.10;;;;;;;-1.00;89.15;102165.56;1762561;81;21442;-34
2020/12/18 01:36:29;;;;;;;35.35;19.55;;;;;;;-1.00;89.22;102160.48;1762417;80;20946;-35
2020/12/18 01:38:59;;;;;;;40.83;20.32;;;;;;;-1.00;89.30;102158.80;1761657;81;20954;-36
2020/12/18 01:41:27;;;;;;;39.10;19.92;;;;;;;-0.99;89.35;102163.09;1762532;81;20993;-35
2020/12/18 01:43:55;;;;;;;47.98;22.27;;;;;;;-0.98;89.30;102161.03;1762487;81;20993;-35
2020/12/18 01:46:27;;;;;;;45.90;21.12;;;;;;;-1.00;89.30;102152.86;1762625;81;21203;-33
2020/12/18 01:48:56;;;;;;;43.90;20.82;;;;;;;-1.00;89.31;102156.67;1760939;80;20942;-37
2020/12/18 01:51:24;;;;;;;60.08;22.67;;;;;;;-1.01;89.31;102154.51;1731636;81;20989;-36
2020/12/18 01:53:53;;;;;;;68.67;22.40;;;;;;;-1.03;89.25;102158.22;1724743;81;20930;-36
2020/12/18 01:56:28;;;;;;;50.28;21.35;;;;;;;-1.03;89.31;102149.73;1755963;81;20918;-36
2020/12/18 01:59:07;;;;;;;58.75;22.05;;;;;;;-1.00;89.35;102157.94;1890221;76;23118;-34
2020/12/18 02:01:48;;;;;;;58.58;21.70;;;;;;;-1.01;89.43;102159.59;1821552;77;20998;-37
2020/12/18 02:04:21;;;;;;;43.33;21.05;;;;;;;-1.00;89.44;102154.98;1758416;78;21386;-35
2020/12/18 02:06:52;;;;;;;54.85;21.30;;;;;;;-0.99;89.53;102151.66;1791542;78;21516;-35
2020/12/18 02:09:21;;;;;;;50.43;21.50;;;;;;;-1.01;89.48;102157.05;1823027;78;20960;-35
2020/12/18 02:11:52;;;;;;;53.30;20.62;;;;;;;-1.00;89.43;102155.40;1823093;78;20988;-37
2020/12/18 02:14:20;;;;;;;72.15;22.10;;;;;;;-0.99;89.37;102157.15;1823382;78;20964;-35
2020/12/18 02:16:49;;;;;;;67.22;20.02;;;;;;;-1.02;89.40;102155.30;1822894;78;21146;-35
2020/12/18 02:19:19;;;;;;;50.75;20.32;;;;;;;-1.06;89.43;102161.00;1821970;78;21011;-35
2020/12/18 02:21:50;;;;;;;56.75;20.85;;;;;;;-1.07;89.41;102162.66;1819732;78;20988;-36
2020/12/18 02:24:26;;;;;;;56.18;22.32;;;;;;;-1.06;89.48;102165.67;1823276;78;21007;-35
2020/12/18 02:26:56;;;;;;;57.98;20.92;;;;;;;-1.04;89.63;102165.36;1823256;78;20917;-33
2020/12/18 02:29:24;;;;;;;52.50;21.48;;;;;;;-1.02;89.70;102165.05;1823433;78;22209;-35
2020/12/18 02:31:54;;;;;;;56.68;21.42;;;;;;;-0.99;89.67;102164.78;1821819;78;20893;-34
2020/12/18 02:34:29;;;;;;;66.07;22.58;;;;;;;-0.97;89.66;102167.87;1822450;78;21003;-34
2020/12/18 02:36:59;;;;;;;74.25;22.22;;;;;;;-0.97;89.74;102170.41;1822647;78;20992;-34
2020/12/18 02:39:28;;;;;;;78.60;21.90;;;;;;;-0.98;89.71;102168.66;1823259;78;21035;-36
2020/12/18 02:41:58;;;;;;;47.30;21.15;;;;;;;-0.95;89.75;102174.33;1823146;78;21377;-34
2020/12/18 02:44:31;;;;;;;53.25;22.15;;;;;;;-0.93;89.75;102171.06;1821113;78;20992;-38
2020/12/18 02:47:13;;;;;;;52.45;20.65;;;;;;;-0.92;89.80;102167.72;1818531;78;21063;-36
2020/12/18 02:49:41;;;;;;;53.60;21.10;;;;;;;-0.97;89.71;102170.83;1823236;78;20972;-36
2020/12/18 02:52:11;;;;;;;46.37;20.55;;;;;;;-0.97;89.70;102170.83;1820491;78;20976;-36
2020/12/18 02:54:40;;;;;;;53.78;21.52;;;;;;;-0.99;89.65;102168.59;1817077;78;21356;-38
2020/12/18 02:57:09;;;;;;;98.00;22.15;;;;;;;-1.04;89.68;102170.86;1814211;78;21019;-36
2020/12/18 02:59:39;;;;;;;99.20;23.75;;;;;;;-1.11;89.74;102171.31;1802700;78;20932;-34
2020/12/18 03:02:07;;;;;;;93.52;24.10;;;;;;;-1.14;89.85;102169.84;1823241;78;20920;-38
2020/12/18 03:04:35;;;;;;;109.52;23.00;;;;;;;-1.13;89.87;102165.27;1823254;78;21020;-36
2020/12/18 03:07:11;;;;;;;69.35;21.60;;;;;;;-1.14;89.92;102168.56;1795602;78;21207;-35
2020/12/18 03:09:39;;;;;;;86.40;23.52;;;;;;;-1.16;89.98;102168.09;1822799;78;20984;-35
2020/12/18 03:12:07;;;;;;;57.80;21.87;;;;;;;-1.10;90.06;102167.98;1822752;78;20940;-36
2020/12/18 03:14:35;;;;;;;78.92;24.37;;;;;;;-1.07;90.08;102165.61;1822681;78;20908;-35
2020/12/18 03:17:05;;;;;;;63.95;20.88;;;;;;;-1.06;90.15;102173.30;1818639;78;20881;-36
2020/12/18 03:19:52;;;;;;;62.10;21.77;;;;;;;-1.06;90.23;102166.09;1822655;78;21417;-37
2020/12/18 03:22:21;;;;;;;68.50;22.73;;;;;;;-1.06;90.27;102164.81;1820502;78;21000;-36
2020/12/18 03:24:53;;;;;;;55.65;21.20;;;;;;;-1.06;90.27;102161.00;1781677;78;21456;-38
2020/12/18 03:27:26;;;;;;;58.28;22.07;;;;;;;-1.05;90.34;102163.61;1819245;78;20932;-36
2020/12/18 03:29:56;;;;;;;56.58;20.62;;;;;;;-1.03;90.39;102171.34;1821895;78;20912;-36
2020/12/18 03:32:24;;;;;;;65.42;21.42;;;;;;;-1.00;90.38;102162.61;1822632;78;21386;-37
2020/12/18 03:34:53;;;;;;;59.50;19.15;;;;;;;-0.98;90.32;102161.03;1820339;78;20901;-36
2020/12/18 03:37:24;;;;;;;60.20;20.25;;;;;;;-0.99;90.34;102166.91;1822335;78;20936;-36
2020/12/18 03:39:52;;;;;;;109.63;23.57;;;;;;;-0.98;90.37;102161.03;1822547;78;20956;-36
2020/12/18 03:42:22;;;;;;;65.67;21.60;;;;;;;-0.96;90.36;102165.80;1821216;78;20941;-36
2020/12/18 03:44:50;;;;;;;72.03;19.32;;;;;;;-0.97;90.30;102158.97;1822632;78;21190;-35
2020/12/18 03:47:19;;;;;;;58.90;18.73;;;;;;;-0.97;90.28;102164.47;1818139;78;20988;-36
2020/12/18 03:49:49;;;;;;;57.70;20.30;;;;;;;-1.00;90.35;102156.26;1821007;78;20948;-37
2020/12/18 03:52:17;;;;;;;62.40;19.15;;;;;;;-0.99;90.31;102164.78;1822586;78;20988;-35
2020/12/18 03:54:47;;;;;;;47.85;19.35;;;;;;;-0.98;90.32;102162.30;1822322;78;20999;-36
2020/12/18 03:57:23;;;;;;;46.25;18.85;;;;;;;-0.99;90.36;102167.32;1787689;78;21194;-35
2020/12/18 03:59:58;;;;;;;52.75;19.55;;;;;;;-1.02;90.38;102162.52;1821482;78;21047;-36
2020/12/18 04:02:28;;;;;;;58.33;19.07;;;;;;;-1.01;90.41;102165.95;1819803;78;21597;-38
2020/12/18 04:04:56;;;;;;;43.25;18.12;;;;;;;-1.02;90.34;102159.11;1822582;78;21055;-36
2020/12/18 04:07:25;;;;;;;46.05;19.82;;;;;;;-1.04;90.42;102160.69;1822704;78;21434;-37
2020/12/18 04:09:54;;;;;;;47.20;17.87;;;;;;;-1.05;90.49;102162.34;1822607;78;21427;-38
2020/12/18 04:12:23;;;;;;;45.55;18.77;;;;;;;-1.03;90.53;102166.26;1822124;78;20940;-35
2020/12/18 04:14:53;;;;;;;47.43;18.87;;;;;;;-1.02;90.49;102162.52;1821110;78;20925;-36
2020/12/18 04:17:22;;;;;;;43.05;17.80;;;;;;;-1.01;90.53;102167.22;1822012;78;20976;-35
2020/12/18 04:19:51;;;;;;;47.55;17.70;;;;;;;-1.04;90.56;102164.50;1822045;78;20933;-36
2020/12/18 04:22:19;;;;;;;36.65;17.35;;;;;;;-1.05;90.61;102164.03;1822611;78;21198;-36
2020/12/18 04:25:01;;;;;;;39.63;19.15;;;;;;;-1.05;90.63;102165.30;1820357;78;22344;-34
2020/12/18 04:27:30;;;;;;;34.23;18.65;;;;;;;-1.09;90.67;102165.92;1822075;78;20987;-36
2020/12/18 04:29:59;;;;;;;39.83;18.42;;;;;;;-1.10;90.74;102166.70;1822536;78;20972;-36
2020/12/18 04:32:26;;;;;;;54.10;19.87;;;;;;;-1.07;90.75;102158.84;1822623;78;20913;-35
2020/12/18 04:34:55;;;;;;;40.12;18.77;;;;;;;-1.05;90.73;102167.43;1822642;78;21202;-35
2020/12/18 04:37:30;;;;;;;;;;;;;;;-1.04;90.79;102163.23;1822172;78;21154;-35
2020/12/18 04:40:03;;;;;;;94.32;20.10;;;;;;;-1.03;90.85;102164.98;1821108;78;20100;-34
2020/12/18 04:42:34;;;;;;;320.57;27.48;;;;;;;-1.06;90.87;102162.28;1822614;78;20988;-35
2020/12/18 04:45:03;;;;;;;172.65;22.65;;;;;;;-1.06;90.82;102162.28;1822685;78;21471;-36
2020/12/18 04:47:36;;;;;;;84.90;17.25;;;;;;;-1.09;90.85;102162.11;1822524;78;21362;-38
2020/12/18 04:50:05;;;;;;;54.23;16.07;;;;;;;-1.09;90.92;102163.38;1822506;78;20969;-35
2020/12/18 04:52:37;;;;;;;38.92;15.80;;;;;;;-1.12;90.94;102164.48;1822611;78;20984;-36
2020/12/18 04:55:05;;;;;;;28.40;15.90;;;;;;;-1.11;90.93;102161.14;1791802;78;21035;-36
2020/12/18 04:57:44;;;;;;;29.52;15.08;;;;;;;-1.12;90.90;102158.13;1798676;78;20873;-35
2020/12/18 05:00:13;;;;;;;25.92;14.38;;;;;;;-1.16;90.98;102157.06;1795180;78;21371;-36
2020/12/18 05:02:44;;;;;;;26.45;15.30;;;;;;;-1.18;91.06;102159.91;1821350;78;21430;-35
2020/12/18 05:05:12;;;;;;;23.75;14.50;;;;;;;-1.18;91.05;102159.50;1796452;78;21032;-36
2020/12/18 05:07:41;;;;;;;31.75;15.15;;;;;;;-1.17;91.03;102158.70;1820670;78;20980;-35
2020/12/18 05:10:09;;;;;;;40.60;16.30;;;;;;;-1.19;91.08;102160.29;1825816;78;20979;-36
2020/12/18 05:12:42;;;;;;;23.22;13.88;;;;;;;-1.18;91.14;102158.64;1808318;78;22053;-36
2020/12/18 05:15:10;;;;;;;19.17;12.98;;;;;;;-1.16;91.12;102161.73;1825693;78;20987;-35
2020/12/18 05:17:40;;;;;;;22.20;14.10;;;;;;;-1.16;91.09;102171.04;1822246;78;21047;-36
2020/12/18 05:20:08;;;;;;;22.52;14.75;;;;;;;-1.19;91.21;102173.00;1825762;78;21573;-37
2020/12/18 05:22:44;;;;;;;24.90;14.53;;;;;;;-1.20;91.28;102177.59;1821015;78;20987;-36
2020/12/18 05:25:19;;;;;;;;;;;;;;;-1.18;91.26;102177.29;1794524;78;22353;-36
2020/12/18 05:27:50;;;;;;;24.00;15.18;;;;;;;-1.15;91.23;102190.58;1825607;78;20104;-36
2020/12/18 05:30:22;;;;;;;23.62;14.95;;;;;;;-1.17;91.27;102186.67;1825780;78;20925;-36
2020/12/18 05:33:02;;;;;;;26.75;16.02;;;;;;;-1.18;91.33;102190.00;1752937;81;21139;-35
2020/12/18 05:35:31;;;;;;;22.32;15.00;;;;;;;-1.17;91.34;102194.30;1773204;78;20962;-34
2020/12/18 05:38:04;;;;;;;24.32;14.95;;;;;;;-1.17;91.33;102199.37;1774546;78;21215;-37
2020/12/18 05:40:33;;;;;;;23.75;14.07;;;;;;;-1.18;91.37;102196.77;1814609;78;20922;-35
2020/12/18 05:43:07;;;;;;;24.27;14.30;;;;;;;-1.21;91.42;102197.45;1798979;78;20883;-37
2020/12/18 05:45:36;;;;;;;23.50;14.75;;;;;;;-1.17;91.37;102198.11;1826297;78;20863;-36
2020/12/18 05:48:06;;;;;;;25.10;14.35;;;;;;;-1.17;91.35;102204.46;1822121;78;20959;-36
2020/12/18 05:50:41;;;;;;;22.35;14.50;;;;;;;-1.17;91.42;102207.41;1823832;78;21293;-36
2020/12/18 05:53:11;;;;;;;26.80;14.75;;;;;;;-1.18;91.46;102212.87;1826220;78;20997;-37
2020/12/18 05:55:43;;;;;;;36.88;14.50;;;;;;;-1.14;91.47;102213.94;1825430;78;21021;-36
2020/12/18 05:58:15;;;;;;;43.08;14.95;;;;;;;-1.11;91.42;102209.44;1823699;78;21030;-37
2020/12/18 06:00:45;;;;;;;22.80;14.90;;;;;;;-1.14;91.47;102215.59;1788371;79;21457;-35
2020/12/18 06:03:33;;;;;;;22.98;14.30;;;;;;;-1.13;91.57;102213.56;1810644;77;22758;-37
2020/12/18 06:06:04;;;;;;;22.17;14.13;;;;;;;-1.16;91.58;102211.30;1782328;79;20986;-35
2020/12/18 06:08:32;;;;;;;26.55;15.60;;;;;;;-1.14;91.57;102214.31;1782341;80;21470;-37
2020/12/18 06:11:01;;;;;;;24.60;15.58;;;;;;;-1.14;91.59;102216.48;1752339;80;21026;-35
2020/12/18 06:13:37;;;;;;;22.50;14.60;;;;;;;-1.12;91.63;102212.77;1777596;80;20887;-36
2020/12/18 06:16:22;;;;;;;27.73;15.68;;;;;;;-1.08;91.59;102221.91;1780723;80;20947;-34
2020/12/18 06:19:06;;;;;;;25.90;14.28;;;;;;;-1.00;91.55;102217.69;1812793;77;22754;-35
2020/12/18 06:21:36;;;;;;;23.45;15.18;;;;;;;-1.04;91.59;102212.81;1783864;80;21003;-36
2020/12/18 06:24:05;;;;;;;22.22;14.85;;;;;;;-1.06;91.65;102210.16;1784376;80;22293;-36
2020/12/18 06:26:56;;;;;;;22.55;13.55;;;;;;;-1.03;91.63;102217.96;1784245;80;20915;-36
2020/12/18 06:29:28;;;;;;;26.07;15.03;;;;;;;-1.02;91.60;102227.75;1782466;80;21014;-36
2020/12/18 06:32:27;;;;;;;23.45;14.95;;;;;;;-1.03;91.69;102224.73;1773426;80;20911;-36
2020/12/18 06:35:34;;;;;;;22.58;15.18;;;;;;;-1.02;91.72;102231.16;1780529;80;21006;-36
2020/12/18 06:38:23;;;;;;;26.00;15.93;;;;;;;-0.98;91.71;102230.95;1784215;80;21197;-35
2020/12/18 06:40:55;;;;;;;26.23;16.12;;;;;;;-0.97;91.69;102228.89;1773665;80;20998;-34
2020/12/18 06:43:37;;;;;;;27.90;16.15;;;;;;;-0.95;91.74;102228.99;1782860;80;21006;-34
2020/12/18 06:46:07;;;;;;;27.40;16.07;;;;;;;-0.92;91.69;102232.56;1779563;80;20963;-35
2020/12/18 06:48:54;;;;;;;26.10;16.27;;;;;;;-0.90;91.65;102226.31;1784219;80;20923;-38
2020/12/18 06:51:30;;;;;;;25.37;15.38;;;;;;;-0.93;91.65;102227.41;1777753;80;21209;-36
2020/12/18 06:54:10;;;;;;;27.98;16.37;;;;;;;-0.95;91.73;102231.13;1783117;80;25266;-36
2020/12/18 06:56:43;;;;;;;26.77;16.45;;;;;;;-0.94;91.73;102235.42;1782808;80;20983;-34
2020/12/18 06:59:20;;;;;;;26.40;16.25;;;;;;;-0.92;91.69;102232.56;1755464;80;20968;-36
2020/12/18 07:01:48;;;;;;;27.77;16.75;;;;;;;-0.91;91.74;102237.27;1784201;80;21042;-36
2020/12/18 07:04:22;;;;;;;25.55;15.78;;;;;;;-0.89;91.78;102239.51;1784222;80;21191;-37
2020/12/18 07:06:50;;;;;;;21.37;13.98;;;;;;;-0.84;91.69;102242.32;1784132;80;20947;-34
2020/12/18 07:09:18;;;;;;;25.82;14.28;;;;;;;-0.81;91.65;102244.63;1784199;80;20951;-34
2020/12/18 07:11:47;;;;;;;22.27;13.93;;;;;;;-0.80;91.65;102245.11;1729659;80;20974;-36
2020/12/18 07:14:17;;;;;;;18.85;12.70;;;;;;;-0.81;91.67;102251.39;1701843;80;21022;-35
2020/12/18 07:16:55;;;;;;;20.52;13.40;;;;;;;-0.79;91.63;102253.63;1784136;79;21349;-36
2020/12/18 07:19:24;;;;;;;28.05;14.58;;;;;;;-0.77;91.56;102249.09;1730850;80;20938;-34
2020/12/18 07:22:09;;;;;;;17.57;13.25;;;;;;;-0.75;91.59;102249.19;1847712;76;22736;-36
2020/12/18 07:24:37;;;;;;;23.40;14.30;;;;;;;-0.76;91.65;102253.80;1818122;79;20911;-36
2020/12/18 07:27:05;;;;;;;21.48;13.68;;;;;;;-0.72;91.58;102251.91;1818140;79;21188;-36
2020/12/18 07:29:33;;;;;;;21.45;14.07;;;;;;;-0.68;91.54;102253.83;1818004;79;20935;-37
2020/12/18 07:32:03;;;;;;;20.15;13.62;;;;;;;-0.67;91.56;102253.03;1786855;79;21030;-40
2020/12/18 07:34:31;;;;;;;22.62;14.70;;;;;;;-0.65;91.52;102256.54;1818184;79;20956;-37
2020/12/18 07:37:13;;;;;;;20.43;13.65;;;;;;;-0.62;91.47;102255.47;1818121;79;20951;-36
2020/12/18 07:39:41;;;;;;;29.57;15.63;;;;;;;-0.56;91.40;102250.23;1817783;78;21373;-36
2020/12/18 07:42:09;;;;;;;27.48;15.13;;;;;;;-0.54;91.41;102253.75;1818132;79;20884;-36
2020/12/18 07:44:37;;;;;;;24.00;15.23;;;;;;;-0.50;91.43;102253.13;1818145;79;20895;-36
2020/12/18 07:47:05;;;;;;;29.60;14.98;;;;;;;-0.41;91.44;102245.12;1818043;79;20959;-37
2020/12/18 07:49:32;;;;;;;26.20;15.95;;;;;;;-0.32;91.35;102249.06;1732117;79;20982;-36
2020/12/18 07:52:07;;;;;;;29.55;17.57;;;;;;;-0.26;91.27;102251.45;1818065;79;21188;-37
2020/12/18 07:54:35;;;;;;;44.10;16.32;;;;;;;-0.25;91.25;102250.66;1818152;79;20931;-37
2020/12/18 07:57:08;;;;;;;25.40;15.98;;;;;;;-0.20;91.18;102254.33;1818111;79;20943;-36
2020/12/18 07:59:35;;;;;;;29.42;16.97;;;;;;;-0.15;91.10;102256.72;1818182;78;20867;-34
2020/12/18 08:02:04;;;;;;;29.70;17.07;;;;;;;-0.18;91.05;102248.92;1786844;79;20958;-35
2020/12/18 08:04:32;;;;;;;26.10;17.30;;;;;;;-0.22;91.05;102251.72;1786870;79;22807;-35
2020/12/18 08:07:00;;;;;;;25.90;15.93;;;;;;;-0.23;90.97;102245.25;1818101;79;20966;-36
2020/12/18 08:09:29;;;;;;;27.13;17.90;;;;;;;-0.23;90.88;102251.62;1818087;78;20871;-35
2020/12/18 08:11:57;;;;;;;26.97;16.40;;;;;;;-0.31;90.88;102245.72;1817960;79;20986;-35
2020/12/18 08:14:25;;;;;;;29.75;17.80;;;;;;;-0.33;90.93;102245.14;1756753;79;20975;-35
2020/12/18 08:16:53;;;;;;;28.27;17.70;;;;;;;-0.32;90.90;102247.79;1818131;79;22719;-37
2020/12/18 08:19:21;;;;;;;25.45;16.20;;;;;;;-0.31;90.83;102240.63;1818034;78;21141;-38
2020/12/18 08:21:49;;;;;;;29.25;18.92;;;;;;;-0.33;90.85;102236.23;1817892;78;20954;-36
2020/12/18 08:24:31;;;;;;;28.85;18.55;;;;;;;-0.37;90.91;102240.30;1818103;79;20927;-36
2020/12/18 08:27:08;;;;;;;29.75;19.23;;;;;;;-0.34;90.92;102244.28;1786815;79;20963;-37
2020/12/18 08:29:37;;;;;;;32.67;19.85;;;;;;;-0.33;90.78;102238.40;1818017;78;21000;-35
2020/12/18 08:32:06;;;;;;;31.45;19.80;;;;;;;-0.37;90.79;102244.12;1817762;78;20911;-34
2020/12/18 08:34:34;;;;;;;30.23;18.17;;;;;;;-0.37;90.87;102246.66;1817478;79;20959;-34
2020/12/18 08:37:03;;;;;;;34.63;19.55;;;;;;;-0.36;90.81;102242.44;1817407;78;21101;-34
2020/12/18 08:39:35;;;;;;;30.92;19.00;;;;;;;-0.33;90.75;102243.48;1817517;78;21014;-34
2020/12/18 08:42:03;;;;;;;38.40;20.55;;;;;;;-0.31;90.81;102241.91;1817459;79;21357;-38
2020/12/18 08:44:43;;;;;;;33.05;21.25;;;;;;;-0.28;90.81;102240.31;1817353;79;21014;-36
2020/12/18 08:47:27;;;;;;;30.95;18.32;;;;;;;-0.24;90.75;102242.23;1817590;79;21509;-35
2020/12/18 08:49:56;;;;;;;31.85;20.12;;;;;;;-0.24;90.62;102243.13;1817235;79;21006;-36
2020/12/18 08:52:28;;;;;;;35.50;22.02;;;;;;;-0.25;90.66;102240.48;1817433;78;20959;-36
2020/12/18 08:55:07;;;;;;;36.90;20.65;;;;;;;-0.23;90.69;102243.60;1817568;79;22201;-36
2020/12/18 08:57:40;;;;;;;25.60;17.37;;;;;;;-0.20;90.63;102245.42;1817480;78;21524;-37
2020/12/18 09:00:18;;;;;;;26.70;17.55;;;;;;;-0.19;90.51;102240.42;1816979;79;21572;-36
2020/12/18 09:02:56;;;;;;;27.17;17.42;;;;;;;-0.23;90.45;102239.78;1817314;79;21509;-36
2020/12/18 09:05:33;;;;;;;28.98;18.20;;;;;;;-0.28;90.46;102237.77;1817490;79;20983;-35
2020/12/18 09:08:06;;;;;;;30.95;18.45;;;;;;;-0.27;90.41;102234.43;1817412;79;21275;-37
2020/12/18 09:10:41;;;;;;;26.80;17.07;;;;;;;-0.24;90.40;102235.87;1817357;79;20990;-36
2020/12/18 09:13:26;;;;;;;29.87;18.20;;;;;;;-0.25;90.40;102232.84;1817480;79;20919;-36
2020/12/18 09:16:05;;;;;;;32.67;19.75;;;;;;;-0.25;90.40;102231.57;1817659;79;21493;-35
2020/12/18 09:18:37;;;;;;;34.00;18.07;;;;;;;-0.26;90.33;102234.50;1817527;79;21489;-39
2020/12/18 09:21:12;;;;;;;39.63;19.90;;;;;;;-0.24;90.31;102232.94;1821805;78;21359;-37
2020/12/18 09:23:41;;;;;;;29.63;18.02;;;;;;;-0.23;90.34;102233.80;1832609;78;21548;-37
2020/12/18 09:26:10;;;;;;;26.73;16.55;;;;;;;-0.25;90.32;102223.55;1810960;79;21006;-37
2020/12/18 09:28:43;;;;;;;26.07;16.55;;;;;;;-0.21;90.25;102224.58;1812794;79;20919;-36
2020/12/18 09:31:10;;;;;;;21.00;14.30;;;;;;;-0.19;90.18;102216.63;1812846;79;21296;-36
2020/12/18 09:33:39;;;;;;;16.20;10.63;;;;;;;-0.16;90.23;102221.49;1812826;79;21245;-38
2020/12/18 09:36:12;;;;;;;19.15;13.28;;;;;;;-0.20;90.09;102217.03;1812791;79;20919;-37
2020/12/18 09:38:42;;;;;;;21.33;12.90;;;;;;;-0.25;89.94;102217.56;1812741;79;20899;-37
2020/12/18 09:41:17;;;;;;;16.05;9.88;;;;;;;-0.30;89.85;102210.95;1812783;79;20892;-36
2020/12/18 09:43:45;;;;;;;10.43;8.28;;;;;;;-0.35;89.70;102208.17;1812586;79;20975;-38
2020/12/18 09:46:13;;;;;;;16.25;10.60;;;;;;;-0.41;89.71;102210.77;1812813;79;21195;-37
2020/12/18 09:48:46;;;;;;;10.65;7.33;;;;;;;-0.45;89.78;102209.72;1812831;79;21101;-36
2020/12/18 09:51:15;;;;;;;9.13;6.72;;;;;;;-0.43;89.68;102208.12;1812786;79;20982;-37
2020/12/18 09:53:43;;;;;;;6.22;5.62;;;;;;;-0.40;89.61;102215.92;1812716;78;21018;-37
2020/12/18 09:56:12;;;;;;;7.40;6.20;;;;;;;-0.38;89.58;102217.30;1812849;79;20967;-36
2020/12/18 09:58:40;;;;;;;7.87;5.67;;;;;;;-0.37;89.53;102216.13;1812808;78;21343;-37
2020/12/18 10:01:08;;;;;;;15.28;8.33;;;;;;;-0.33;89.41;102215.88;1812627;79;20923;-35
2020/12/18 10:03:36;;;;;;;19.05;10.38;;;;;;;-0.30;89.23;102222.40;1812794;79;20927;-36
2020/12/18 10:06:04;;;;;;;11.30;6.15;;;;;;;-0.32;89.20;102214.70;1812787;79;20987;-37
2020/12/18 10:08:32;;;;;;;9.33;6.22;;;;;;;-0.32;89.09;102214.70;1812847;78;20916;-38
2020/12/18 10:10:59;;;;;;;11.97;7.92;;;;;;;-0.31;89.01;102214.28;1793546;80;22058;-37
2020/12/18 10:13:27;;;;;;;14.55;8.90;;;;;;;-0.31;89.00;102215.17;1812783;79;20926;-36
2020/12/18 10:15:55;;;;;;;8.18;5.92;;;;;;;-0.28;88.90;102218.27;1793559;80;20910;-32
2020/12/18 10:18:23;;;;;;;5.03;4.50;;;;;;;-0.26;88.94;102212.00;1812733;79;21023;-35
2020/12/18 10:20:50;;;;;;;22.22;6.10;;;;;;;-0.27;88.84;102211.52;1793397;80;21032;-35
2020/12/18 10:23:18;;;;;;;82.82;8.13;;;;;;;-0.25;88.78;102209.94;1759782;81;21209;-35
2020/12/18 10:25:48;;;;;;;14.80;5.25;;;;;;;-0.23;88.63;102208.34;1749874;80;20984;-35
2020/12/18 10:28:16;;;;;;;4.35;3.95;;;;;;;-0.23;88.21;102213.44;1809938;79;21018;-34
2020/12/18 10:30:43;;;;;;;4.70;4.30;;;;;;;-0.29;88.24;102201.24;1809865;79;20998;-35
2020/12/18 10:33:11;;;;;;;5.37;4.62;;;;;;;-0.31;88.16;102202.45;1809980;79;21006;-35
2020/12/18 10:35:39;;;;;;;5.37;4.22;;;;;;;-0.32;88.12;102203.24;1810000;79;22110;-35
2020/12/18 10:38:07;;;;;;;5.78;4.65;;;;;;;-0.30;88.11;102203.31;1809974;79;20892;-35
2020/12/18 10:40:35;;;;;;;5.50;4.22;;;;;;;-0.24;88.02;102196.41;1809902;79;21026;-34
2020/12/18 10:43:03;;;;;;;7.05;5.05;;;;;;;-0.23;87.99;102199.05;1809815;79;21031;-35
2020/12/18 10:45:31;;;;;;;12.50;5.25;;;;;;;-0.23;87.83;102195.62;1809927;79;20995;-35
2020/12/18 10:47:59;;;;;;;6.83;5.53;;;;;;;-0.25;87.82;102190.46;1810010;79;22792;-35
2020/12/18 10:50:27;;;;;;;7.15;5.60;;;;;;;-0.21;87.75;102191.48;1809956;79;21181;-35
2020/12/18 10:52:55;;;;;;;7.10;5.67;;;;;;;-0.17;87.76;102184.48;1809789;79;20915;-36
2020/12/18 10:55:23;;;;;;;8.78;5.55;;;;;;;-0.13;87.85;102186.39;1809888;79;20971;-35
2020/12/18 10:57:51;;;;;;;8.05;5.92;;;;;;;-0.10;87.84;102189.52;1809926;79;20955;-34
2020/12/18 11:00:19;;;;;;;5.72;5.17;;;;;;;-0.09;87.82;102184.52;1810003;79;22764;-36
2020/12/18 11:02:47;;;;;;;15.40;6.92;;;;;;;-0.04;87.64;102184.35;1809816;79;20991;-36
2020/12/18 11:05:15;;;;;;;7.03;5.90;;;;;;;-0.06;87.42;102182.13;1809963;79;20975;-35
2020/12/18 11:07:43;;;;;;;26.40;7.87;;;;;;;-0.06;87.45;102178.69;1809787;79;20971;-34
2020/12/18 11:10:12;;;;;;;24.07;8.78;;;;;;;-0.04;87.45;102183.08;1809941;79;20955;-35
2020/12/18 11:12:42;;;;;;;106.58;11.68;;;;;;;-0.02;87.40;102184.03;1809876;79;21173;-35
2020/12/18 11:15:10;;;;;;;116.50;11.80;;;;;;;0.04;87.20;102184.77;1809869;79;20927;-34
2020/12/18 11:17:37;;;;;;;180.25;15.13;;;;;;;0.08;87.06;102181.96;1809852;79;20904;-36
2020/12/18 11:20:06;;;;;;;121.35;19.37;;;;;;;0.09;87.04;102182.44;1809928;79;20971;-36
2020/12/18 11:22:34;;;;;;;98.82;17.00;;;;;;;0.10;86.81;102182.91;1809802;78;20960;-35
2020/12/18 11:25:02;;;;;;;56.15;13.40;;;;;;;0.07;86.76;102177.66;1809931;79;21364;-37
2020/12/18 11:27:29;;;;;;;78.65;11.65;;;;;;;0.11;86.76;102174.48;1809866;79;20992;-36